Atlanta, Louisiana
Current Conditions -  °F | °C
As of 7:35 PM on Friday 19 Dec 2014 (Local Time) from KIER Reporting Station
Overcast Overcast  
Wind Chill: 45°   Ceiling: 900
Heat Index: 49°   Visibility: 10mi
Dew Point: 47°   Wind: 7mph
Humidity: 95%   Direction: 30°NNE
Pressure: 30.16"   Gusts: NA
Location:  31.81°N, 92.74°W
Report Text: KIER 200135Z AUTO 03006KT 10SM OVC009 09/09 A3016 RMK AO2 T00920085
Loading
Personal Weather Stations






























Interactive Weather Map New forecast layout! Learn more

10-Day Weather Forecast

Advertisements
Track Severe Weather on mobile